»·PEaware :: N275ND KSNA-KSNA

N275ND :: KSNA-KSNA

FLIGHT INFORMATION

Flight Status: Arrived
Operator: Privately registered:
United States
More flights under this callsign
Pilot: John A. (19135)
Aircraft: CESSNA 172 SKYHAWK
(C172)
More flights by this aircraft type
Origin: KSNA John Wayne-Orange Co
United States
Destination: KSNA John Wayne-Orange Co
United States
More flights between these airports :: More routes between these airports
Route: +SLI
File this flight plan on PilotEdge
Remarks: I rate
Altitude:
(Current/Filed)
3,000ft
Speed:
(Current/Filed)
150kts
Departed: 20-Jul-19 10:44 AM
Arrived: 20-Jul-19 11:10 AM
Distance/Time
Traveled:
1nm/0:25
Distance/Time
To Go:
Arrived

Flight Plot

Page will automatically refresh every two minutes.


Map Options




Map Legend


Flown Route
Filed Route
Departure Airport
Arrival Airport
Navaid (VOR, NDB)
Fix

Horizontal Profiles

Position Reports

Time Latitude Longitude Heading Altitude Ground
Speed
20-Jul-19 10:24 33.667535 -117.871314 33 60ft 0kts
20-Jul-19 10:25 33.667535 -117.871314 33 60ft 0kts
20-Jul-19 10:26 33.667535 -117.871314 33 60ft 0kts
20-Jul-19 10:27 33.667535 -117.871314 33 60ft 0kts
20-Jul-19 10:28 33.667535 -117.871314 33 60ft 0kts
20-Jul-19 10:29 33.667535 -117.871314 33 60ft 0kts
20-Jul-19 10:30 33.667535 -117.871314 33 60ft 0kts
20-Jul-19 10:31 33.667535 -117.871314 33 60ft 0kts
20-Jul-19 10:32 33.667535 -117.871314 33 60ft 0kts
20-Jul-19 10:33 33.667535 -117.871314 33 60ft 0kts
20-Jul-19 10:34 33.667535 -117.871314 33 60ft 0kts
20-Jul-19 10:35 33.667535 -117.871314 33 60ft 0kts
20-Jul-19 10:36 33.667535 -117.871314 33 60ft 0kts
20-Jul-19 10:37 33.667537 -117.871311 33 60ft 0kts
20-Jul-19 10:38 33.669734 -117.870294 43 60ft 26kts
20-Jul-19 10:39 33.672451 -117.867909 26 60ft 8kts
20-Jul-19 10:40 33.676115 -117.865821 27 60ft 25kts
20-Jul-19 10:41 33.679933 -117.863572 307 60ft 0kts
20-Jul-19 10:42 33.679662 -117.864457 207 60ft 27kts
20-Jul-19 10:43 33.664089 -117.880685 247 712ft 87kts
20-Jul-19 10:44 33.656986 -117.910267 260 1650ft 88kts
20-Jul-19 10:45 33.673918 -117.917953 31 2350ft 103kts
20-Jul-19 10:46 33.699080 -117.901007 13 2937ft 109kts
20-Jul-19 10:47 33.730717 -117.890018 15 2990ft 120kts
20-Jul-19 10:48 33.763202 -117.878711 15 2971ft 120kts
20-Jul-19 10:49 33.794153 -117.869337 9 2961ft 113kts
20-Jul-19 10:50 33.824495 -117.860152 11 2949ft 113kts
20-Jul-19 10:51 33.854409 -117.849482 19 2960ft 110kts
20-Jul-19 10:52 33.881862 -117.836171 68 2974ft 111kts
20-Jul-19 10:53 33.871704 -117.802360 117 3023ft 109kts
20-Jul-19 10:54 33.852078 -117.786586 205 3038ft 109kts
20-Jul-19 10:55 33.822526 -117.795589 194 2991ft 106kts
20-Jul-19 10:56 33.794154 -117.804823 190 2940ft 103kts
20-Jul-19 10:57 33.772693 -117.820621 287 2887ft 109kts
20-Jul-19 10:58 33.798647 -117.818523 35 3003ft 118kts
20-Jul-19 10:59 33.826734 -117.796791 36 3007ft 123kts
20-Jul-19 11:00 33.857926 -117.783614 17 3067ft 119kts
20-Jul-19 11:01 33.871639 -117.755736 135 2972ft 123kts
20-Jul-19 11:02 33.841017 -117.765351 205 2953ft 120kts
20-Jul-19 11:03 33.813729 -117.781521 207 2898ft 108kts
20-Jul-19 11:04 33.789506 -117.797943 200 2813ft 102kts
20-Jul-19 11:05 33.768226 -117.812852 203 2403ft 81kts
20-Jul-19 11:06 33.746481 -117.827868 211 1766ft 92kts
20-Jul-19 11:07 33.720579 -117.840209 210 1087ft 96kts
20-Jul-19 11:08 33.697430 -117.855103 206 416ft 76kts
20-Jul-19 11:09 33.679070 -117.866684 209 60ft 38kts
20-Jul-19 11:10 33.674679 -117.868580 162 60ft 0kts
20-Jul-19 11:11 33.670792 -117.869219 219 60ft 25kts
20-Jul-19 11:12 33.667525 -117.871342 35 60ft 0kts
20-Jul-19 11:13 33.667543 -117.871327 36 60ft 0kts
20-Jul-19 11:14 33.667543 -117.871327 36 60ft 0kts
20-Jul-19 11:15 33.667543 -117.871327 36 60ft 0kts
20-Jul-19 11:16 33.667543 -117.871327 36 60ft 0kts
20-Jul-19 11:17 33.667543 -117.871327 36 60ft 0kts
20-Jul-19 11:18 33.667543 -117.871327 36 60ft 0kts
20-Jul-19 11:19 33.667543 -117.871327 36 60ft 0kts
20-Jul-19 11:20 33.667543 -117.871327 36 60ft 0kts
20-Jul-19 11:21 33.667543 -117.871327 36 60ft 0kts

Navigation Log

Ident Type
Flight plan parsing failed, navigation log unavailable